KTYS/TYS METAR and TAF weather

Enter ICAO airport designator
Station Type Date Time Source
KTYS METAR 2021/07/30 05:53 UTC NOAA

KTYS 300553Z 24007KT 10SM BKN250 26/22 A2999 RMK AO2 SLP143 T02610222 10317 20256 56011


Station Type Date Time Source
KTYS Decoded METAR 2021/07/30 05:53 UTC NOAA

MCGHEE TYSON AIRPORT, TN, United States (KTYS) 35-49N 083-59W 302M
Jul 30, 2021 - 01:53 AM EDT / 2021.07.30 0553 UTC
Wind: from the WSW (240 degrees) at 8 MPH (7 KT):0
Visibility: 10 mile(s):0
Sky conditions: mostly cloudy
Temperature: 79.0 F (26.1 C)
Dew Point: 72.0 F (22.2 C)
Relative Humidity: 79%
Pressure (altimeter): 29.99 in. Hg (1015 hPa)
Pressure tendency: 0.03 inches (1.1 hPa) lower than three hours ago
ob: KTYS 300553Z 24007KT 10SM BKN250 26/22 A2999 RMK AO2 SLP143 T02610222 10317 20256 56011
cycle: 6

Station Type Date Time Source
KTYS TAF 2021/07/30 06:42 UTC NOAA

TAF KTYS 300539Z 3006/3106 21005KT P6SM SCT250
FM301300 26005KT P6SM SCT040
FM301700 33007KT P6SM BKN050

Example: see airport list